Time;durP1;ratioP1;P1;durP2;ratioP2;P2;SDS_P1;SDS_P2;PMS_P1;PMS_P2;Temp;Humidity;BMP_temperature;BMP_pressure;BME280_temperature;BME280_humidity;BME280_pressure;Samples;Min_cycle;Max_cycle;Signal;HPM_P1;HPM_P2
2023/06/17 00:02:20;;;;;;;1999.90;999.90;;;19.90;15.70;;;;;;5015309;28;20488;-69
2023/06/17 00:04:46;;;;;;;1999.90;999.90;;;19.80;18.00;;;;;;5015446;28;20185;-69
2023/06/17 00:07:11;;;;;;;1999.90;999.90;;;19.80;18.90;;;;;;5015325;28;20268;-69
2023/06/17 00:09:40;;;;;;;1999.90;999.90;;;19.60;20.70;;;;;;5015916;28;20821;-68
2023/06/17 00:12:07;;;;;;;1999.90;999.90;;;19.40;21.50;;;;;;5015637;28;20177;-69
2023/06/17 00:14:33;;;;;;;1999.90;999.90;;;19.20;22.00;;;;;;5015196;28;20789;-69
2023/06/17 00:17:00;;;;;;;1999.90;999.90;;;19.20;22.90;;;;;;5015481;28;20406;-69
2023/06/17 00:19:27;;;;;;;1999.90;999.90;;;19.00;23.50;;;;;;5015242;28;20649;-69
2023/06/17 00:21:53;;;;;;;1999.90;999.90;;;19.00;24.80;;;;;;5014839;28;20761;-69
2023/06/17 00:24:19;;;;;;;1999.90;999.90;;;19.00;26.00;;;;;;5015158;28;20451;-69
2023/06/17 00:26:46;;;;;;;1999.90;999.90;;;18.90;27.70;;;;;;5015000;28;20554;-68
2023/06/17 00:29:11;;;;;;;1999.90;999.90;;;18.80;27.80;;;;;;5014920;28;20409;-68
2023/06/17 00:31:37;;;;;;;1999.90;999.90;;;18.70;30.20;;;;;;5014671;28;20421;-68
2023/06/17 00:34:03;;;;;;;1999.90;999.90;;;18.70;33.20;;;;;;5014766;28;20187;-68
2023/06/17 00:36:28;;;;;;;1999.90;999.90;;;18.60;35.90;;;;;;5014723;28;20177;-68
2023/06/17 00:38:54;;;;;;;1999.90;999.90;;;18.60;39.00;;;;;;5014730;28;20664;-69
2023/06/17 00:41:20;;;;;;;1999.90;999.90;;;18.60;41.30;;;;;;5014716;28;20182;-69
2023/06/17 00:43:45;;;;;;;1999.90;999.90;;;18.60;42.90;;;;;;5014671;28;20193;-69
2023/06/17 00:46:28;;;;;;;1999.90;999.90;;;18.60;42.90;;;;;;5014652;28;20194;-69
2023/06/17 00:48:53;;;;;;;1999.90;999.90;;;18.40;43.60;;;;;;5014932;28;20213;-69
2023/06/17 00:51:20;;;;;;;1999.90;999.90;;;18.40;45.80;;;;;;5014402;28;20815;-68
2023/06/17 00:53:46;;;;;;;1999.90;999.90;;;18.30;49.90;;;;;;5014660;28;20262;-68
2023/06/17 00:56:12;;;;;;;1999.90;999.90;;;18.20;53.40;;;;;;5014653;28;20448;-68
2023/06/17 00:58:39;;;;;;;1999.90;999.90;;;18.30;56.20;;;;;;5014542;28;20410;-69
2023/06/17 01:01:04;;;;;;;1999.90;999.90;;;18.30;60.20;;;;;;5013972;28;20457;-68
2023/06/17 01:03:30;;;;;;;1999.90;999.90;;;18.20;64.60;;;;;;5014414;28;20407;-69
2023/06/17 01:05:59;;;;;;;1999.90;999.90;;;18.10;66.10;;;;;;5014227;28;20193;-68
2023/06/17 01:08:34;;;;;;;1999.90;999.90;;;18.10;67.20;;;;;;5014239;28;20258;-69
2023/06/17 01:11:08;;;;;;;1999.90;999.90;;;17.90;69.60;;;;;;5014043;28;20487;-69
2023/06/17 01:13:35;;;;;;;1999.90;999.90;;;17.80;68.80;;;;;;5013939;28;20399;-68
2023/06/17 01:16:02;;;;;;;1999.90;999.90;;;17.70;75.90;;;;;;5014130;28;20820;-68
2023/06/17 01:18:29;;;;;;;1999.90;999.90;;;17.60;76.40;;;;;;5014023;28;20964;-68
2023/06/17 01:20:56;;;;;;;1999.90;999.90;;;17.60;75.90;;;;;;5013662;28;20496;-68
2023/06/17 01:23:26;;;;;;;1999.90;999.90;;;17.60;78.10;;;;;;5013688;28;20893;-68
2023/06/17 01:25:52;;;;;;;1999.90;999.90;;;17.70;82.80;;;;;;5013932;28;20819;-69
2023/06/17 01:28:19;;;;;;;1999.90;999.90;;;17.70;86.20;;;;;;5013765;28;20410;-68
2023/06/17 01:30:46;;;;;;;1999.90;999.90;;;17.80;90.60;;;;;;5013749;28;20437;-68
2023/06/17 01:33:15;;;;;;;1999.90;999.90;;;17.70;92.10;;;;;;5012968;28;20417;-68
2023/06/17 01:36:02;;;;;;;1999.90;999.90;;;17.70;95.00;;;;;;5013718;28;20842;-68
2023/06/17 01:38:36;;;;;;;1999.90;999.90;;;17.80;96.20;;;;;;5013687;28;20400;-68
2023/06/17 01:41:06;;;;;;;1999.90;999.90;;;17.70;99.00;;;;;;5013498;28;20399;-68
2023/06/17 01:43:35;;;;;;;1999.90;999.90;;;17.70;99.50;;;;;;5013468;28;20905;-68
2023/06/17 01:46:01;;;;;;;1999.90;999.90;;;17.70;99.90;;;;;;5013390;28;20554;-68
2023/06/17 01:48:27;;;;;;;1999.90;999.90;;;17.70;99.50;;;;;;5013439;28;20403;-68
2023/06/17 01:50:53;;;;;;;1999.90;999.90;;;17.60;97.60;;;;;;5013157;28;20771;-68
2023/06/17 01:53:18;;;;;;;1999.90;999.90;;;17.50;99.60;;;;;;5013145;28;20412;-68
2023/06/17 01:55:44;;;;;;;1999.90;999.90;;;17.50;99.70;;;;;;5013341;28;20186;-68
2023/06/17 01:58:10;;;;;;;1999.90;999.90;;;17.30;98.70;;;;;;5013414;28;20211;-68
2023/06/17 02:00:36;;;;;;;1999.90;999.90;;;17.20;99.90;;;;;;5013267;28;20181;-68
2023/06/17 02:03:02;;;;;;;1999.90;999.90;;;17.10;99.90;;;;;;5012821;28;20282;-68
2023/06/17 02:05:27;;;;;;;1999.90;999.90;;;17.00;99.90;;;;;;5012938;28;20209;-68
2023/06/17 02:07:56;;;;;;;1999.90;999.90;;;17.10;99.90;;;;;;5012999;28;20414;-68
2023/06/17 02:10:22;;;;;;;1999.90;999.90;;;17.00;99.90;;;;;;5013197;28;20206;-68
2023/06/17 02:12:47;;;;;;;1999.90;999.90;;;17.00;99.90;;;;;;5012642;28;20441;-68
2023/06/17 02:15:13;;;;;;;1999.90;999.90;;;17.00;99.90;;;;;;5012888;28;20231;-68
2023/06/17 02:17:39;;;;;;;1999.90;999.90;;;16.90;99.90;;;;;;5012858;28;20248;-68
2023/06/17 02:20:09;;;;;;;1999.90;999.90;;;16.90;99.90;;;;;;5013313;28;20167;-68
2023/06/17 02:22:35;;;;;;;1999.90;999.90;;;16.90;99.90;;;;;;5013447;28;20161;-68
2023/06/17 02:25:02;;;;;;;1999.90;999.90;;;16.90;99.90;;;;;;5012872;28;20805;-68
2023/06/17 02:27:28;;;;;;;1999.90;999.90;;;16.90;99.90;;;;;;5012921;28;20421;-68
2023/06/17 02:29:53;;;;;;;1999.90;999.90;;;16.90;99.90;;;;;;5012814;28;20958;-68
2023/06/17 02:32:19;;;;;;;1999.90;999.90;;;16.80;99.90;;;;;;5012566;28;20492;-68
2023/06/17 02:34:48;;;;;;;1999.90;999.90;;;16.60;99.90;;;;;;5012407;28;20193;-68
2023/06/17 02:37:14;;;;;;;1999.90;999.90;;;16.50;99.90;;;;;;5012727;28;20186;-68
2023/06/17 02:39:40;;;;;;;1999.90;999.90;;;16.50;99.90;;;;;;5012496;28;20404;-68
2023/06/17 02:42:07;;;;;;;1999.90;999.90;;;16.40;99.90;;;;;;5012189;28;20746;-68
2023/06/17 02:44:32;;;;;;;1999.90;999.90;;;16.30;99.90;;;;;;5011610;28;21030;-68
2023/06/17 02:46:58;;;;;;;1999.90;999.90;;;16.20;99.90;;;;;;5012399;28;20459;-69
2023/06/17 02:49:23;;;;;;;1999.90;999.90;;;16.20;99.90;;;;;;5012339;28;20182;-68
2023/06/17 02:51:49;;;;;;;1999.90;999.90;;;16.20;99.90;;;;;;5012056;28;20180;-68
2023/06/17 02:54:15;;;;;;;1999.90;999.90;;;16.20;99.90;;;;;;5012236;28;20189;-68
2023/06/17 02:56:41;;;;;;;1999.90;999.90;;;16.20;99.90;;;;;;5012099;28;20421;-68
2023/06/17 02:59:08;;;;;;;1999.90;999.90;;;16.20;99.90;;;;;;5011741;28;20230;-68
2023/06/17 03:01:39;;;;;;;1999.90;999.90;;;16.30;99.90;;;;;;5011995;28;20194;-68
2023/06/17 03:04:05;;;;;;;1999.90;999.90;;;16.30;99.90;;;;;;5012322;28;20806;-68
2023/06/17 03:06:33;;;;;;;1999.90;999.90;;;16.30;99.90;;;;;;5012192;28;20514;-68
2023/06/17 03:09:00;;;;;;;1999.90;999.90;;;16.40;99.90;;;;;;5012115;28;20412;-68
2023/06/17 03:11:28;;;;;;;1999.90;999.90;;;16.40;99.90;;;;;;5011801;28;20409;-68
2023/06/17 03:13:54;;;;;;;1999.90;999.90;;;16.50;99.90;;;;;;5012211;28;20507;-68
2023/06/17 03:16:20;;;;;;;1999.90;999.90;;;16.40;99.90;;;;;;5012190;28;20496;-68
2023/06/17 03:18:47;;;;;;;1999.90;999.90;;;16.50;99.90;;;;;;5012182;28;21051;-68
2023/06/17 03:21:12;;;;;;;1999.90;999.90;;;16.50;99.90;;;;;;5011955;28;20230;-68
2023/06/17 03:23:40;;;;;;;1999.90;999.90;;;16.50;99.90;;;;;;5011992;28;20932;-68
2023/06/17 03:26:07;;;;;;;1999.90;999.90;;;16.40;99.90;;;;;;5011930;28;20576;-68
2023/06/17 03:28:32;;;;;;;1999.90;999.90;;;16.20;99.90;;;;;;5012176;28;20407;-68
2023/06/17 03:30:58;;;;;;;1999.90;999.90;;;16.20;99.90;;;;;;5011694;28;20451;-68
2023/06/17 03:33:23;;;;;;;1999.90;999.90;;;16.20;99.90;;;;;;5012027;28;20197;-68
2023/06/17 03:35:49;;;;;;;1999.90;999.90;;;16.30;99.90;;;;;;5011893;28;20173;-68
2023/06/17 03:38:15;;;;;;;1999.90;999.90;;;16.30;99.90;;;;;;5012401;28;20181;-69
2023/06/17 03:40:40;;;;;;;1999.90;999.90;;;16.30;99.90;;;;;;5012008;28;20179;-69
2023/06/17 03:43:06;;;;;;;1999.90;999.90;;;16.40;99.90;;;;;;5011900;28;20176;-69
2023/06/17 03:45:33;;;;;;;1999.90;999.90;;;16.40;99.90;;;;;;5011684;28;20251;-68
2023/06/17 03:47:58;;;;;;;1999.90;999.90;;;16.50;99.90;;;;;;5011926;28;20176;-68
2023/06/17 03:50:24;;;;;;;1999.90;999.90;;;16.50;99.90;;;;;;5011806;28;20485;-68
2023/06/17 03:52:50;;;;;;;1999.90;999.90;;;16.50;99.90;;;;;;5011378;28;20175;-68
2023/06/17 03:55:16;;;;;;;1999.90;999.90;;;16.40;99.90;;;;;;5011647;28;20274;-68
2023/06/17 03:57:42;;;;;;;1999.90;999.90;;;16.40;99.90;;;;;;5015058;28;20202;-68
2023/06/17 04:00:10;;;;;;;1999.90;999.90;;;16.40;99.90;;;;;;5015366;28;20404;-68
2023/06/17 04:02:35;;;;;;;1999.90;999.90;;;16.30;99.90;;;;;;5015106;28;20783;-68
2023/06/17 04:05:02;;;;;;;1999.90;999.90;;;16.30;99.90;;;;;;5015215;28;20516;-68
2023/06/17 04:07:28;;;;;;;1999.90;999.90;;;16.30;99.90;;;;;;5015214;28;20178;-68
2023/06/17 04:09:54;;;;;;;1999.90;999.90;;;16.40;99.90;;;;;;5015083;28;20407;-68
2023/06/17 04:12:20;;;;;;;1999.90;999.90;;;16.40;99.90;;;;;;5015061;28;20419;-68
2023/06/17 04:14:45;;;;;;;1999.90;999.90;;;16.50;99.90;;;;;;5015052;28;20491;-68
2023/06/17 04:17:11;;;;;;;1999.90;999.90;;;16.40;99.90;;;;;;5015080;28;20176;-68
2023/06/17 04:19:37;;;;;;;1999.90;999.90;;;16.50;99.90;;;;;;5015012;28;20172;-68
2023/06/17 04:22:05;;;;;;;1999.90;999.90;;;16.50;99.90;;;;;;5014711;28;20172;-68
2023/06/17 04:24:31;;;;;;;1999.90;999.90;;;16.50;99.90;;;;;;5014831;28;20459;-68
2023/06/17 04:26:56;;;;;;;1999.90;999.90;;;16.50;99.90;;;;;;5014838;28;20536;-68
2023/06/17 04:29:22;;;;;;;1999.90;999.90;;;16.60;99.90;;;;;;5014901;28;20411;-68
2023/06/17 04:31:47;;;;;;;1999.90;999.90;;;16.70;99.90;;;;;;5015659;28;20247;-68
2023/06/17 04:34:21;;;;;;;1999.90;999.90;;;16.60;99.90;;;;;;5015706;28;20679;-68
2023/06/17 04:36:56;;;;;;;1999.90;999.90;;;16.60;99.90;;;;;;5014757;28;20210;-68
2023/06/17 04:39:26;;;;;;;1999.90;999.90;;;16.60;99.90;;;;;;5014748;28;20409;-68
2023/06/17 04:41:52;;;;;;;1999.90;999.90;;;16.60;99.90;;;;;;5014420;28;20412;-68
2023/06/17 04:44:17;;;;;;;1999.90;999.90;;;16.70;99.90;;;;;;5014532;28;20545;-68
2023/06/17 04:46:48;;;;;;;1999.90;999.90;;;16.80;99.90;;;;;;5015048;28;20201;-69
2023/06/17 04:49:14;;;;;;;1999.90;999.90;;;16.90;99.90;;;;;;5015116;28;20187;-69
2023/06/17 04:51:41;;;;;;;1999.90;999.90;;;16.90;99.90;;;;;;5014744;28;20447;-68
2023/06/17 04:54:07;;;;;;;1999.90;999.90;;;16.90;99.90;;;;;;5014906;28;20477;-69
2023/06/17 04:56:33;;;;;;;1999.90;999.90;;;16.90;99.90;;;;;;5014766;28;20762;-69
2023/06/17 04:58:59;;;;;;;1999.90;999.90;;;17.00;99.90;;;;;;5014810;28;20423;-69
2023/06/17 05:01:25;;;;;;;1999.90;999.90;;;16.90;99.90;;;;;;5014623;28;20197;-69
2023/06/17 05:03:50;;;;;;;1999.90;999.90;;;16.90;99.90;;;;;;5014554;28;20426;-68
2023/06/17 05:06:17;;;;;;;1999.90;999.90;;;17.10;99.90;;;;;;5014743;28;20202;-68
2023/06/17 05:08:42;;;;;;;1999.90;999.90;;;17.20;99.90;;;;;;5013589;28;20171;-68
2023/06/17 05:11:08;;;;;;;1999.90;999.90;;;17.30;99.90;;;;;;5014402;28;20923;-68
2023/06/17 05:13:33;;;;;;;1999.90;999.90;;;17.40;99.90;;;;;;5014454;28;20509;-68
2023/06/17 05:15:59;;;;;;;1999.90;999.90;;;17.50;99.90;;;;;;5014488;28;20177;-68
2023/06/17 05:18:24;;;;;;;1999.90;999.90;;;17.60;99.90;;;;;;5014327;28;20247;-68
2023/06/17 05:20:50;;;;;;;1999.90;999.90;;;17.70;99.90;;;;;;5014054;28;20636;-68
2023/06/17 05:23:15;;;;;;;1999.90;999.90;;;17.80;99.90;;;;;;5014053;28;20197;-69
2023/06/17 05:25:41;;;;;;;1999.90;999.90;;;17.90;99.90;;;;;;5014199;28;20196;-68
2023/06/17 05:28:10;;;;;;;1999.90;999.90;;;18.00;99.90;;;;;;5014464;28;20518;-68
2023/06/17 05:30:36;;;;;;;1999.90;999.90;;;18.10;99.90;;;;;;5014106;28;20172;-69
2023/06/17 05:33:01;;;;;;;1999.90;999.90;;;18.20;99.90;;;;;;5014075;28;20445;-68
2023/06/17 05:35:28;;;;;;;1999.90;999.90;;;18.20;99.90;;;;;;5014079;28;20288;-68
2023/06/17 05:37:53;;;;;;;1999.90;999.90;;;18.30;99.90;;;;;;5013910;28;20208;-68
2023/06/17 05:40:19;;;;;;;1999.90;999.90;;;18.30;99.90;;;;;;5013994;28;20457;-68
2023/06/17 05:42:45;;;;;;;1999.90;999.90;;;18.40;99.90;;;;;;5013684;28;20172;-68
2023/06/17 05:45:10;;;;;;;1999.90;999.90;;;18.50;99.90;;;;;;5013891;28;20208;-68
2023/06/17 05:47:36;;;;;;;1999.90;999.90;;;18.60;99.90;;;;;;5013970;28;20171;-69
2023/06/17 05:50:02;;;;;;;1999.90;999.90;;;18.60;99.90;;;;;;5013781;28;20164;-68
2023/06/17 05:52:27;;;;;;;1999.90;999.90;;;18.70;99.90;;;;;;5012945;28;20177;-69
2023/06/17 05:54:53;;;;;;;1999.90;999.90;;;18.80;99.90;;;;;;5013081;28;20313;-68
2023/06/17 05:57:18;;;;;;;1999.90;999.90;;;18.80;99.90;;;;;;5013613;28;20540;-69
2023/06/17 05:59:44;;;;;;;1999.90;999.90;;;18.90;99.90;;;;;;5013653;28;20247;-68
2023/06/17 06:02:10;;;;;;;1999.90;999.90;;;19.00;99.90;;;;;;5013340;28;20173;-68
2023/06/17 06:04:36;;;;;;;1999.90;999.90;;;19.10;99.90;;;;;;5013718;28;20509;-68
2023/06/17 06:07:01;;;;;;;1999.90;999.90;;;19.20;99.90;;;;;;5013303;28;20205;-68
2023/06/17 06:09:27;;;;;;;1999.90;999.90;;;19.20;99.90;;;;;;5013686;28;20176;-69
2023/06/17 06:11:52;;;;;;;1999.90;999.90;;;19.30;99.90;;;;;;5013343;28;20681;-68
2023/06/17 06:14:18;;;;;;;1999.90;999.90;;;19.30;99.90;;;;;;5013225;28;20265;-68
2023/06/17 06:16:44;;;;;;;1999.90;999.90;;;19.40;99.90;;;;;;5013508;28;20174;-69
2023/06/17 06:19:09;;;;;;;1999.90;999.90;;;19.50;99.90;;;;;;5013276;28;20179;-69
2023/06/17 06:21:35;;;;;;;1999.90;999.90;;;19.60;99.90;;;;;;5013456;28;20246;-69
2023/06/17 06:24:00;;;;;;;1999.90;999.90;;;19.60;99.90;;;;;;5013551;28;20197;-69
2023/06/17 06:26:26;;;;;;;1999.90;999.90;;;19.70;99.90;;;;;;5013783;28;20346;-68
2023/06/17 06:28:52;;;;;;;1999.90;999.90;;;19.80;99.90;;;;;;5013676;28;20181;-69
2023/06/17 06:31:17;;;;;;;1999.90;999.90;;;19.90;99.90;;;;;;5012964;28;20260;-70
2023/06/17 06:33:43;;;;;;;1999.90;999.90;;;20.00;99.90;;;;;;5013401;28;20194;-68
2023/06/17 06:36:09;;;;;;;1999.90;999.90;;;20.10;99.90;;;;;;5013222;28;20587;-68
2023/06/17 06:38:35;;;;;;;1999.90;999.90;;;20.10;99.90;;;;;;5013363;28;20224;-69
2023/06/17 06:41:00;;;;;;;1999.90;999.90;;;20.20;99.90;;;;;;5012870;28;20492;-69
2023/06/17 06:43:26;;;;;;;1999.90;999.90;;;20.20;99.90;;;;;;5013050;28;20612;-69
2023/06/17 06:45:51;;;;;;;1999.90;999.90;;;20.30;99.90;;;;;;5012780;28;20230;-68
2023/06/17 06:48:17;;;;;;;1999.90;999.90;;;20.40;99.90;;;;;;5012876;28;20179;-69
2023/06/17 06:50:42;;;;;;;1999.90;999.90;;;20.50;99.90;;;;;;5012764;28;20177;-68
2023/06/17 06:53:08;;;;;;;1999.90;999.90;;;20.50;99.90;;;;;;5012697;28;20168;-69
2023/06/17 06:55:34;;;;;;;1999.90;999.90;;;20.60;99.90;;;;;;5012840;28;20274;-68
2023/06/17 06:58:01;;;;;;;1999.90;999.90;;;20.60;99.90;;;;;;5012890;28;20497;-68
2023/06/17 07:00:26;;;;;;;1999.90;999.90;;;20.70;99.90;;;;;;5012920;28;20186;-69
2023/06/17 07:02:52;;;;;;;1999.90;999.90;;;20.70;99.90;;;;;;5012634;28;20385;-68
2023/06/17 07:05:17;;;;;;;1999.90;999.90;;;20.80;99.90;;;;;;5012680;28;20199;-69
2023/06/17 07:07:44;;;;;;;1999.90;999.90;;;20.90;99.90;;;;;;5012913;28;20222;-69
2023/06/17 07:10:10;;;;;;;1999.90;999.90;;;21.00;99.90;;;;;;5012819;28;20175;-69
2023/06/17 07:12:35;;;;;;;1999.90;999.90;;;21.00;99.90;;;;;;5012649;28;20405;-68
2023/06/17 07:15:01;;;;;;;1999.90;999.90;;;21.10;99.90;;;;;;5011934;28;20259;-69
2023/06/17 07:17:26;;;;;;;1999.90;999.90;;;21.10;99.90;;;;;;5011946;28;20182;-70
2023/06/17 07:19:52;;;;;;;1999.90;999.90;;;21.20;99.90;;;;;;5012008;28;20723;-69
2023/06/17 07:22:17;;;;;;;1999.90;999.90;;;21.30;99.90;;;;;;5011758;28;20176;-69
2023/06/17 07:24:43;;;;;;;1999.90;999.90;;;21.50;99.90;;;;;;5012067;28;20231;-68
2023/06/17 07:27:08;;;;;;;1999.90;999.90;;;21.60;99.90;;;;;;5011903;28;20724;-69
2023/06/17 07:29:34;;;;;;;1999.90;999.90;;;21.70;99.90;;;;;;5011989;28;20175;-69
2023/06/17 07:32:00;;;;;;;1999.90;999.90;;;21.80;99.90;;;;;;5014076;28;20247;-69
2023/06/17 07:34:25;;;;;;;1999.90;999.90;;;21.90;99.90;;;;;;5015875;28;20181;-69
2023/06/17 07:36:52;;;;;;;1999.90;999.90;;;21.90;99.90;;;;;;5015765;28;20653;-69
2023/06/17 07:39:19;;;;;;;1999.90;999.90;;;22.00;99.60;;;;;;5015759;28;20552;-69
2023/06/17 07:41:45;;;;;;;1999.90;999.90;;;22.00;98.10;;;;;;5015366;28;20469;-69
2023/06/17 07:44:10;;;;;;;1999.90;999.90;;;22.10;96.20;;;;;;5015318;28;20907;-69
2023/06/17 07:46:36;;;;;;;1999.90;999.90;;;22.20;95.30;;;;;;5015715;28;20228;-69
2023/06/17 07:49:01;;;;;;;1999.90;999.90;;;22.30;93.20;;;;;;5015328;28;20168;-68
2023/06/17 07:51:27;;;;;;;1999.90;999.90;;;22.40;96.20;;;;;;5015213;28;20173;-69
2023/06/17 07:53:52;;;;;;;1999.90;999.90;;;22.40;93.60;;;;;;5015359;28;20193;-69
2023/06/17 07:56:19;;;;;;;1999.90;999.90;;;22.50;91.80;;;;;;5015235;28;20544;-68
2023/06/17 07:58:45;;;;;;;1999.90;999.90;;;22.60;91.00;;;;;;5015287;28;20235;-69
2023/06/17 08:01:11;;;;;;;1999.90;999.90;;;22.60;83.10;;;;;;5014203;28;20810;-68
2023/06/17 08:03:37;;;;;;;1999.90;999.90;;;22.70;72.00;;;;;;5015504;28;20471;-67
2023/06/17 08:06:03;;;;;;;1999.90;999.90;;;22.70;69.40;;;;;;5015876;28;20197;-69
2023/06/17 08:08:29;;;;;;;1999.90;999.90;;;22.80;70.30;;;;;;5012956;28;20554;-68
2023/06/17 08:10:54;;;;;;;1999.90;999.90;;;22.90;72.60;;;;;;5016619;28;20472;-67
2023/06/17 08:13:20;;;;;;;1999.90;999.90;;;23.00;73.90;;;;;;5011247;28;20717;-68
2023/06/17 08:15:46;;;;;;;1999.90;999.90;;;23.00;70.70;;;;;;5012178;28;20185;-69
2023/06/17 08:18:11;;;;;;;1999.90;999.90;;;23.10;69.60;;;;;;5012122;28;20184;-68
2023/06/17 08:20:37;;;;;;;1999.90;999.90;;;23.30;61.60;;;;;;5013378;28;20204;-68
2023/06/17 08:23:03;;;;;;;1999.90;999.90;;;23.30;66.80;;;;;;5011910;28;20199;-69
2023/06/17 08:25:28;;;;;;;1999.90;999.90;;;23.40;62.00;;;;;;5010973;28;20445;-70
2023/06/17 08:27:54;;;;;;;1999.90;999.90;;;23.50;56.00;;;;;;5010575;28;20552;-69
2023/06/17 08:30:20;;;;;;;1999.90;999.90;;;23.50;56.80;;;;;;5010706;28;20189;-68
2023/06/17 08:32:46;;;;;;;1999.90;999.90;;;23.60;54.20;;;;;;5010406;28;20260;-69
2023/06/17 08:35:11;;;;;;;1999.90;999.90;;;23.80;48.50;;;;;;5010181;28;20567;-68
2023/06/17 08:37:37;;;;;;;1999.90;999.90;;;23.90;51.90;;;;;;5011090;28;20173;-68
2023/06/17 08:40:06;;;;;;;1999.90;999.90;;;24.10;50.20;;;;;;5010325;28;20659;-69
2023/06/17 08:42:32;;;;;;;1999.90;999.90;;;24.20;46.80;;;;;;5009675;28;20181;-68
2023/06/17 08:45:01;;;;;;;1999.90;999.90;;;24.30;42.00;;;;;;5010469;28;20421;-68
2023/06/17 08:47:27;;;;;;;1999.90;999.90;;;24.40;45.50;;;;;;5010278;28;20207;-70
2023/06/17 08:49:57;;;;;;;1999.90;999.90;;;24.60;38.30;;;;;;5009474;28;20408;-69
2023/06/17 08:52:26;;;;;;;1999.90;999.90;;;24.60;37.50;;;;;;5009955;28;20403;-68
2023/06/17 08:54:53;;;;;;;1999.90;999.90;;;24.80;38.10;;;;;;5010709;28;20414;-68
2023/06/17 08:57:19;;;;;;;1999.90;999.90;;;24.80;29.00;;;;;;5009107;28;20423;-69
2023/06/17 08:59:45;;;;;;;1999.90;999.90;;;24.90;24.60;;;;;;5009645;28;20394;-68
2023/06/17 09:02:11;;;;;;;1999.90;999.90;;;25.00;25.40;;;;;;5010144;28;20176;-69
2023/06/17 09:04:36;;;;;;;1999.90;999.90;;;25.20;24.20;;;;;;5009467;28;20196;-69
2023/06/17 09:07:02;;;;;;;1999.90;999.90;;;25.30;22.60;;;;;;5009965;28;20795;-68
2023/06/17 09:09:28;;;;;;;1999.90;999.90;;;25.30;20.70;;;;;;5010505;28;20207;-69
2023/06/17 09:11:53;;;;;;;1999.90;999.90;;;25.50;22.60;;;;;;5009330;28;20561;-69
2023/06/17 09:14:25;;;;;;;1999.90;999.90;;;25.40;20.00;;;;;;5011199;28;20193;-69
2023/06/17 09:16:51;;;;;;;1999.90;999.90;;;25.50;20.60;;;;;;5011811;28;20177;-69
2023/06/17 09:19:16;;;;;;;1999.90;999.90;;;25.60;20.60;;;;;;5010492;28;20892;-69
2023/06/17 09:21:47;;;;;;;1999.90;999.90;;;25.80;20.20;;;;;;5010588;28;20926;-72
2023/06/17 09:24:12;;;;;;;1999.90;999.90;;;25.90;17.70;;;;;;5010732;28;20192;-70
2023/06/17 09:26:43;;;;;;;1999.90;999.90;;;26.00;16.60;;;;;;5009601;28;20534;-68
2023/06/17 09:29:10;;;;;;;1999.90;999.90;;;26.10;17.40;;;;;;5009694;28;20718;-68
2023/06/17 09:31:56;;;;;;;1999.90;999.90;;;26.20;17.00;;;;;;5010026;28;20412;-68
2023/06/17 09:34:24;;;;;;;1999.90;999.90;;;25.80;14.80;;;;;;5009676;28;20439;-68
2023/06/17 09:36:59;;;;;;;1999.90;999.90;;;25.70;18.20;;;;;;5010701;28;20398;-68
2023/06/17 09:39:32;;;;;;;1999.90;999.90;;;25.70;13.90;;;;;;5010772;28;20400;-70
2023/06/17 09:42:10;;;;;;;1999.90;999.90;;;25.50;15.30;;;;;;5010453;28;20439;-68
2023/06/17 09:44:39;;;;;;;1999.90;999.90;;;25.50;15.50;;;;;;5010487;28;20426;-68
2023/06/17 09:47:09;;;;;;;1999.90;999.90;;;25.60;14.20;;;;;;5009188;28;20459;-69
2023/06/17 09:49:35;;;;;;;1999.90;999.90;;;25.70;14.40;;;;;;5009607;28;20412;-68
2023/06/17 09:52:03;;;;;;;1999.90;999.90;;;25.80;14.30;;;;;;5006617;28;20422;-69
2023/06/17 09:54:31;;;;;;;1999.90;999.90;;;26.00;14.80;;;;;;5008768;28;20459;-68
2023/06/17 09:56:59;;;;;;;1999.90;999.90;;;26.10;12.50;;;;;;5008842;28;20958;-69
2023/06/17 09:59:26;;;;;;;1999.90;999.90;;;26.20;12.60;;;;;;5008944;28;20423;-70
2023/06/17 10:01:52;;;;;;;1999.90;999.90;;;26.50;12.50;;;;;;5008771;28;20498;-69
2023/06/17 10:04:18;;;;;;;1999.90;999.90;;;26.50;12.80;;;;;;5010378;28;20450;-70
2023/06/17 10:06:48;;;;;;;1999.90;999.90;;;26.40;14.70;;;;;;5009525;28;20885;-70
2023/06/17 10:09:14;;;;;;;1999.90;999.90;;;26.40;13.20;;;;;;5010410;28;20184;-71
2023/06/17 10:11:43;;;;;;;1999.90;999.90;;;26.50;11.90;;;;;;5010280;28;20408;-68
2023/06/17 10:14:25;;;;;;;1999.90;999.90;;;26.70;11.90;;;;;;5009151;28;20216;-69
2023/06/17 10:16:51;;;;;;;1999.90;999.90;;;27.00;12.00;;;;;;5009704;28;20406;-68
2023/06/17 10:19:22;;;;;;;1999.90;999.90;;;27.10;11.50;;;;;;5009362;28;20478;-69
2023/06/17 10:21:50;;;;;;;1999.90;999.90;;;26.90;10.20;;;;;;5008626;28;20394;-69
2023/06/17 10:24:17;;;;;;;1999.90;999.90;;;26.60;8.80;;;;;;5008645;28;21034;-68
2023/06/17 10:26:43;;;;;;;1999.90;999.90;;;26.40;9.00;;;;;;5008627;28;20461;-69
2023/06/17 10:29:10;;;;;;;1999.90;999.90;;;26.50;9.80;;;;;;5008789;28;20443;-69
2023/06/17 10:31:39;;;;;;;1999.90;999.90;;;26.60;9.10;;;;;;5008148;28;20177;-69
2023/06/17 10:34:05;;;;;;;1999.90;999.90;;;26.90;9.50;;;;;;5008366;28;20438;-69
2023/06/17 10:36:36;;;;;;;1999.90;999.90;;;27.20;9.00;;;;;;5008864;28;20989;-69
2023/06/17 10:39:10;;;;;;;1999.90;999.90;;;27.30;10.40;;;;;;5009380;28;20485;-69
2023/06/17 10:41:42;;;;;;;1999.90;999.90;;;27.60;7.40;;;;;;5008421;28;20416;-68
2023/06/17 10:44:27;;;;;;;1999.90;999.90;;;27.40;9.80;;;;;;5007001;28;20529;-70
2023/06/17 10:46:57;;;;;;;1999.90;999.90;;;27.40;9.70;;;;;;5008113;28;20553;-70
2023/06/17 10:49:23;;;;;;;1999.90;999.90;;;27.30;8.90;;;;;;5008913;28;20429;-67
2023/06/17 10:51:57;;;;;;;1999.90;999.90;;;27.20;6.30;;;;;;5010718;28;20810;-68
2023/06/17 10:54:27;;;;;;;1999.90;999.90;;;27.40;8.40;;;;;;5008668;28;21312;-69
2023/06/17 10:56:53;;;;;;;1999.90;999.90;;;27.00;7.70;;;;;;5007700;28;20412;-69
2023/06/17 10:59:25;;;;;;;1999.90;999.90;;;27.00;8.50;;;;;;5008508;28;20423;-70
2023/06/17 11:01:51;;;;;;;1999.90;999.90;;;26.90;7.80;;;;;;5011634;28;20526;-69
2023/06/17 11:04:17;;;;;;;1999.90;999.90;;;27.10;8.10;;;;;;5008846;28;21003;-68
2023/06/17 11:06:45;;;;;;;1999.90;999.90;;;27.30;5.40;;;;;;5007209;28;20513;-69
2023/06/17 11:09:11;;;;;;;1999.90;999.90;;;27.50;3.70;;;;;;5008729;28;20453;-69
2023/06/17 11:11:36;;;;;;;1999.90;999.90;;;27.30;4.80;;;;;;5007114;28;20414;-69
2023/06/17 11:14:02;;;;;;;1999.90;999.90;;;27.50;1.60;;;;;;5007420;28;20189;-71
2023/06/17 11:16:31;;;;;;;1999.90;999.90;;;27.50;3.10;;;;;;5007911;28;20228;-68
2023/06/17 11:18:59;;;;;;;1999.90;999.90;;;27.80;2.20;;;;;;5006269;28;20655;-69
2023/06/17 11:21:24;;;;;;;1999.90;999.90;;;27.50;1.00;;;;;;5007280;28;20416;-69
2023/06/17 11:23:51;;;;;;;1999.90;999.90;;;27.40;1.00;;;;;;5007994;28;20438;-69
2023/06/17 11:26:18;;;;;;;1999.90;999.90;;;27.80;1.00;;;;;;5007385;28;20196;-68
2023/06/17 11:28:44;;;;;;;1999.90;999.90;;;28.20;1.00;;;;;;5008049;28;20836;-68
2023/06/17 11:31:10;;;;;;;1999.90;999.90;;;28.60;1.00;;;;;;5007813;28;20416;-69
2023/06/17 11:33:36;;;;;;;1999.90;999.90;;;28.60;1.60;;;;;;5007685;28;20411;-68
2023/06/17 11:36:03;;;;;;;1999.90;999.90;;;28.10;1.00;;;;;;5008125;28;20515;-69
2023/06/17 11:38:30;;;;;;;1999.90;999.90;;;28.20;2.20;;;;;;5007497;28;20510;-69
2023/06/17 11:40:57;;;;;;;1999.90;999.90;;;28.50;1.00;;;;;;5007413;28;20439;-70
2023/06/17 11:43:26;;;;;;;1999.90;999.90;;;28.50;1.00;;;;;;5007346;28;20416;-69
2023/06/17 11:45:57;;;;;;;1999.90;999.90;;;29.00;1.00;;;;;;5007597;28;20977;-69
2023/06/17 11:48:33;;;;;;;1999.90;999.90;;;29.50;1.00;;;;;;5007395;28;20420;-69
2023/06/17 11:50:59;;;;;;;1999.90;999.90;;;29.60;1.00;;;;;;5005619;28;20494;-69
2023/06/17 11:53:36;;;;;;;1999.90;999.90;;;29.40;1.00;;;;;;5007436;28;20502;-70
2023/06/17 11:56:07;;;;;;;1999.90;999.90;;;29.30;1.00;;;;;;5007438;28;20184;-69
2023/06/17 11:58:38;;;;;;;1999.90;999.90;;;29.30;1.00;;;;;;5007876;28;20424;-69
2023/06/17 12:01:04;;;;;;;1999.90;999.90;;;28.90;1.00;;;;;;5007317;28;20934;-69